Time;durP1;ratioP1;P1;durP2;ratioP2;P2;SDS_P1;SDS_P2;PMS_P1;PMS_P2;Temp;Humidity;BMP_temperature;BMP_pressure;BME280_temperature;BME280_humidity;BME280_pressure;Samples;Min_cycle;Max_cycle;Signal;HPM_P1;HPM_P2
2023/10/01 00:00:46;;;;;;;8.35;7.32;;;;;;;;;;5054322;28;20025;-84
2023/10/01 00:03:11;;;;;;;7.82;7.03;;;;;;;;;;5055085;28;20032;-84
2023/10/01 00:05:41;;;;;;;8.82;7.10;;;;;;;;;;5055221;28;20021;-84
2023/10/01 00:08:08;;;;;;;8.93;7.47;;;;;;;;;;5055239;28;20383;-84
2023/10/01 00:10:34;;;;;;;7.68;6.82;;;;;;;;;;5055114;28;20553;-88
2023/10/01 00:12:59;;;;;;;8.38;7.60;;;;;;;;;;5054803;28;20120;-84
2023/10/01 00:15:26;;;;;;;8.32;7.53;;;;;;;;;;5055136;28;20036;-85
2023/10/01 00:17:52;;;;;;;7.47;6.70;;;;;;;;;;5055089;28;20025;-85
2023/10/01 00:20:23;;;;;;;7.93;5.93;;;;;;;;;;5053627;28;20025;-84
2023/10/01 00:22:59;;;;;;;9.77;6.35;;;;;;;;;;5055084;28;20086;-88
2023/10/01 00:25:26;;;;;;;7.40;6.68;;;;;;;;;;5054676;28;20021;-87
2023/10/01 00:27:52;;;;;;;8.45;7.07;;;;;;;;;;5054856;28;20083;-87
2023/10/01 00:30:18;;;;;;;7.57;6.82;;;;;;;;;;5054782;28;20036;-84
2023/10/01 00:32:43;;;;;;;7.53;6.68;;;;;;;;;;5053396;28;20030;-84
2023/10/01 00:35:11;;;;;;;8.00;6.38;;;;;;;;;;5054950;28;20104;-84
2023/10/01 00:37:36;;;;;;;8.80;6.93;;;;;;;;;;5054633;28;20028;-85
2023/10/01 00:40:06;;;;;;;7.10;6.40;;;;;;;;;;5054378;28;20029;-85
2023/10/01 00:42:38;;;;;;;9.10;6.75;;;;;;;;;;5054240;28;20021;-84
2023/10/01 00:45:07;;;;;;;7.20;6.22;;;;;;;;;;5054411;28;20090;-87
2023/10/01 00:47:35;;;;;;;8.20;6.55;;;;;;;;;;5054615;28;20032;-87
2023/10/01 00:50:01;;;;;;;7.20;6.50;;;;;;;;;;5053156;28;20467;-89
2023/10/01 00:52:28;;;;;;;7.32;6.55;;;;;;;;;;5054276;28;20025;-87
2023/10/01 00:54:55;;;;;;;7.65;6.07;;;;;;;;;;5054101;28;20513;-86
2023/10/01 00:57:23;;;;;;;8.25;6.43;;;;;;;;;;5054212;28;20025;-87
2023/10/01 00:59:50;;;;;;;6.80;6.10;;;;;;;;;;5054363;28;20025;-87
2023/10/01 01:02:16;;;;;;;7.15;6.45;;;;;;;;;;5054095;28;20028;-88
2023/10/01 01:04:45;;;;;;;6.80;6.10;;;;;;;;;;5054237;28;20036;-87
2023/10/01 01:07:20;;;;;;;8.35;6.18;;;;;;;;;;5054073;28;20079;-88
2023/10/01 01:09:49;;;;;;;7.07;6.40;;;;;;;;;;5053644;28;20076;-86
2023/10/01 01:12:15;;;;;;;7.00;6.32;;;;;;;;;;5054029;28;20045;-87
2023/10/01 01:14:44;;;;;;;6.60;5.97;;;;;;;;;;5053964;28;20379;-88
2023/10/01 01:17:16;;;;;;;7.57;6.78;;;;;;;;;;5054243;28;20029;-88
2023/10/01 01:19:50;;;;;;;9.63;6.18;;;;;;;;;;5052774;28;20044;-88
2023/10/01 01:22:28;;;;;;;9.30;6.22;;;;;;;;;;5054220;28;20451;-87
2023/10/01 01:24:57;;;;;;;7.57;6.00;;;;;;;;;;5053633;28;20056;-88
2023/10/01 01:27:23;;;;;;;7.13;6.43;;;;;;;;;;5054126;28;20028;-87
2023/10/01 01:29:50;;;;;;;6.38;5.78;;;;;;;;;;5052617;28;20463;-88
2023/10/01 01:32:16;;;;;;;7.53;5.75;;;;;;;;;;5053973;28;20088;-88
2023/10/01 01:34:44;;;;;;;7.75;6.40;;;;;;;;;;5051964;28;20447;-88
2023/10/01 01:37:19;;;;;;;6.68;5.93;;;;;;;;;;5052312;28;20468;-88
2023/10/01 01:39:49;;;;;;;8.45;5.90;;;;;;;;;;5053759;28;20056;-88
2023/10/01 01:42:21;;;;;;;8.32;6.22;;;;;;;;;;5053812;28;20524;-88
2023/10/01 01:45:15;;;;;;;6.60;6.00;;;;;;;;;;5053535;28;20036;-88
2023/10/01 01:47:39;;;;;;;6.53;5.80;;;;;;;;;;5053576;28;20163;-88
2023/10/01 01:50:18;;;;;;;6.68;5.93;;;;;;;;;;5053664;28;20051;-88
2023/10/01 01:52:47;;;;;;;8.40;6.47;;;;;;;;;;5053646;28;20032;-88
2023/10/01 01:55:26;;;;;;;8.20;6.57;;;;;;;;;;5053377;28;20032;-88
2023/10/01 02:00:35;;;;;;;7.10;6.40;;;;;;;;;;5053355;28;20384;-88
2023/10/01 02:03:10;;;;;;;6.95;6.07;;;;;;;;;;5053432;28;20032;-88
2023/10/01 02:05:41;;;;;;;8.90;6.60;;;;;;;;;;5053517;28;20070;-88
2023/10/01 02:08:23;;;;;;;6.82;6.03;;;;;;;;;;5053236;28;20025;-88
2023/10/01 02:10:50;;;;;;;7.70;6.75;;;;;;;;;;5053452;28;20047;-88
2023/10/01 02:13:19;;;;;;;8.32;7.40;;;;;;;;;;5053181;28;20052;-88
2023/10/01 02:15:45;;;;;;;8.57;6.72;;;;;;;;;;5053716;28;20029;-88
2023/10/01 02:18:16;;;;;;;9.10;7.03;;;;;;;;;;5051909;28;20021;-88
2023/10/01 02:20:44;;;;;;;6.22;5.63;;;;;;;;;;5054146;28;20036;-87
2023/10/01 02:23:12;;;;;;;6.80;6.20;;;;;;;;;;5053341;28;20021;-89
2023/10/01 02:25:45;;;;;;;7.43;6.55;;;;;;;;;;5057337;28;20167;-87
2023/10/01 02:28:15;;;;;;;6.82;6.13;;;;;;;;;;5057088;28;20025;-87
2023/10/01 02:30:42;;;;;;;7.88;6.40;;;;;;;;;;5057066;28;20039;-87
2023/10/01 02:33:18;;;;;;;7.20;6.50;;;;;;;;;;5056816;28;20029;-87
2023/10/01 02:35:55;;;;;;;6.93;6.22;;;;;;;;;;5057078;28;20036;-87
2023/10/01 02:38:36;;;;;;;6.85;6.15;;;;;;;;;;5056955;28;20056;-87
2023/10/01 02:41:03;;;;;;;7.30;6.25;;;;;;;;;;5056968;28;20052;-86
2023/10/01 02:43:35;;;;;;;6.78;6.03;;;;;;;;;;5055417;28;20036;-86
2023/10/01 02:46:12;;;;;;;6.90;6.20;;;;;;;;;;5057026;28;20422;-86
2023/10/01 02:48:42;;;;;;;7.13;6.28;;;;;;;;;;5056732;28;20475;-88
2023/10/01 02:51:14;;;;;;;7.25;6.55;;;;;;;;;;5056884;28;20425;-88
2023/10/01 02:54:06;;;;;;;7.78;6.90;;;;;;;;;;5056648;28;20029;-87
2023/10/01 02:56:34;;;;;;;7.57;6.80;;;;;;;;;;5056629;28;20074;-87
2023/10/01 02:59:09;;;;;;;7.07;6.00;;;;;;;;;;5055162;28;20361;-88
2023/10/01 03:01:39;;;;;;;6.70;6.10;;;;;;;;;;5056459;28;20035;-88
2023/10/01 03:04:10;;;;;;;6.45;5.85;;;;;;;;;;5056277;28;20020;-86
2023/10/01 03:06:36;;;;;;;10.05;6.15;;;;;;;;;;5056344;28;20025;-87
2023/10/01 03:09:03;;;;;;;7.07;6.38;;;;;;;;;;5061672;28;20036;-87
2023/10/01 03:11:40;;;;;;;8.45;6.28;;;;;;;;;;5076270;28;20021;-87
2023/10/01 03:14:10;;;;;;;7.65;6.03;;;;;;;;;;5075927;28;20021;-88
2023/10/01 03:16:53;;;;;;;7.57;6.25;;;;;;;;;;5076334;28;20029;-87
2023/10/01 03:19:25;;;;;;;8.73;6.50;;;;;;;;;;5076314;28;20430;-88
2023/10/01 03:22:36;;;;;;;6.97;6.28;;;;;;;;;;5076194;28;20109;-88
2023/10/01 03:24:40;;;;;;;7.50;6.20;;;;;;;;;;5058884;28;20037;-87
2023/10/01 03:29:53;;;;;;;7.05;6.35;;;;;;;;;;5076220;28;20059;-88
2023/10/01 03:32:28;;;;;;;;;;;;;;;;;;5076259;28;20050;-88
2023/10/01 03:34:55;;;;;;;8.23;6.03;;;;;;;;;;5075705;28;19916;-88
2023/10/01 03:37:27;;;;;;;7.28;6.60;;;;;;;;;;5075809;28;20016;-88
2023/10/01 03:40:05;;;;;;;7.20;6.50;;;;;;;;;;5075518;28;20075;-88
2023/10/01 03:42:33;;;;;;;6.65;6.00;;;;;;;;;;5075792;28;20027;-88
2023/10/01 03:45:19;;;;;;;7.00;6.10;;;;;;;;;;5075648;28;20031;-87
2023/10/01 03:47:50;;;;;;;6.50;5.90;;;;;;;;;;5075695;28;20032;-87
2023/10/01 03:50:22;;;;;;;6.60;6.00;;;;;;;;;;5075326;28;20078;-88
2023/10/01 03:52:52;;;;;;;7.10;6.40;;;;;;;;;;5057369;28;20052;-88
2023/10/01 03:55:28;;;;;;;7.20;6.45;;;;;;;;;;5075340;28;20344;-88
2023/10/01 04:00:32;;;;;;;7.65;5.88;;;;;;;;;;5075677;28;20029;-87
2023/10/01 04:02:58;;;;;;;6.97;6.15;;;;;;;;;;5075303;28;20029;-88
2023/10/01 04:05:30;;;;;;;7.30;6.30;;;;;;;;;;5075255;28;20107;-88
2023/10/01 04:07:58;;;;;;;8.32;6.97;;;;;;;;;;5075120;28;20039;-88
2023/10/01 04:13:00;;;;;;;7.28;6.55;;;;;;;;;;5075380;28;20029;-88
2023/10/01 04:15:29;;;;;;;6.60;6.00;;;;;;;;;;5074893;28;20021;-88
2023/10/01 04:18:41;;;;;;;8.63;6.97;;;;;;;;;;5075518;28;20082;-88
2023/10/01 04:23:29;;;;;;;6.75;6.15;;;;;;;;;;5074576;28;20033;-88
2023/10/01 04:26:05;;;;;;;6.95;6.10;;;;;;;;;;5074747;28;20035;-88
2023/10/01 04:28:38;;;;;;;7.65;6.22;;;;;;;;;;5074818;28;20020;-88
2023/10/01 04:31:09;;;;;;;6.82;6.18;;;;;;;;;;5074753;28;20024;-88
2023/10/01 04:33:42;;;;;;;9.20;6.70;;;;;;;;;;5074410;28;20028;-88
2023/10/01 04:36:10;;;;;;;6.53;5.47;;;;;;;;;;5074320;28;20024;-87
2023/10/01 04:38:37;;;;;;;6.85;6.05;;;;;;;;;;5074595;28;20099;-87
2023/10/01 04:41:07;;;;;;;6.88;6.13;;;;;;;;;;5074595;28;20024;-87
2023/10/01 04:43:35;;;;;;;6.75;6.10;;;;;;;;;;5074272;28;20466;-85
2023/10/01 04:46:08;;;;;;;7.97;6.30;;;;;;;;;;5073890;28;20039;-86
2023/10/01 04:48:36;;;;;;;6.63;5.95;;;;;;;;;;5056409;28;20024;-88
2023/10/01 04:51:07;;;;;;;6.75;6.05;;;;;;;;;;5074490;28;20059;-86
2023/10/01 04:53:33;;;;;;;8.82;6.57;;;;;;;;;;5074726;28;20024;-85
2023/10/01 04:56:05;;;;;;;6.70;5.75;;;;;;;;;;5074665;28;20463;-88
2023/10/01 04:58:38;;;;;;;6.57;5.88;;;;;;;;;;5074713;28;20075;-87
2023/10/01 05:01:12;;;;;;;6.68;5.95;;;;;;;;;;5056651;28;20382;-89
2023/10/01 05:03:38;;;;;;;6.60;5.93;;;;;;;;;;5074286;28;20118;-86
2023/10/01 05:06:07;;;;;;;7.15;5.72;;;;;;;;;;5074035;28;20034;-89
2023/10/01 05:08:38;;;;;;;6.15;5.55;;;;;;;;;;5074066;28;20073;-87
2023/10/01 05:11:16;;;;;;;6.82;6.18;;;;;;;;;;5073587;28;20025;-90
2023/10/01 05:13:43;;;;;;;7.53;5.90;;;;;;;;;;5073925;28;20483;-86
2023/10/01 05:16:14;;;;;;;7.72;6.30;;;;;;;;;;5056113;28;20075;-92
2023/10/01 05:18:43;;;;;;;6.32;5.72;;;;;;;;;;5074428;28;20073;-91
2023/10/01 05:21:13;;;;;;;6.65;6.00;;;;;;;;;;5074212;28;20040;-86
2023/10/01 05:23:39;;;;;;;7.45;6.40;;;;;;;;;;5074177;28;20032;-90
2023/10/01 05:26:08;;;;;;;7.45;5.70;;;;;;;;;;5075043;28;20044;-89
2023/10/01 05:28:36;;;;;;;7.28;6.03;;;;;;;;;;5073961;28;20550;-89
2023/10/01 05:31:24;;;;;;;6.78;5.90;;;;;;;;;;5074651;28;20024;-90
2023/10/01 05:33:58;;;;;;;6.75;6.05;;;;;;;;;;5055986;28;20600;-90
2023/10/01 05:36:24;;;;;;;6.40;5.65;;;;;;;;;;5073875;28;20100;-90
2023/10/01 05:38:53;;;;;;;6.53;5.82;;;;;;;;;;5073754;28;20024;-90
2023/10/01 05:41:29;;;;;;;8.23;6.20;;;;;;;;;;5074157;28;20100;-90
2023/10/01 05:44:04;;;;;;;8.50;6.28;;;;;;;;;;5055502;28;20036;-89
2023/10/01 05:46:30;;;;;;;8.05;6.65;;;;;;;;;;5039164;28;20032;-90
2023/10/01 05:49:00;;;;;;;7.20;5.90;;;;;;;;;;5073681;28;20071;-90
2023/10/01 05:51:30;;;;;;;;;;;;;;;;;;5073221;28;20036;-91
2023/10/01 05:53:56;;;;;;;7.32;5.95;;;;;;;;;;5061874;28;19912;-89
2023/10/01 05:56:24;;;;;;;7.25;6.15;;;;;;;;;;5075087;28;20025;-90
2023/10/01 05:58:50;;;;;;;7.30;6.05;;;;;;;;;;5076213;28;20107;-90
2023/10/01 06:01:16;;;;;;;6.88;6.15;;;;;;;;;;5078589;28;20024;-87
2023/10/01 06:03:43;;;;;;;6.97;6.18;;;;;;;;;;5060993;28;20547;-88
2023/10/01 06:06:13;;;;;;;7.32;6.63;;;;;;;;;;5077873;28;20063;-92
2023/10/01 06:08:46;;;;;;;7.72;6.60;;;;;;;;;;5077436;28;20374;-91
2023/10/01 06:11:16;;;;;;;6.65;5.95;;;;;;;;;;5077860;28;20021;-90
2023/10/01 06:13:51;;;;;;;8.00;6.47;;;;;;;;;;5077635;28;20035;-91
2023/10/01 06:16:23;;;;;;;7.07;6.38;;;;;;;;;;5077995;28;20036;-91
2023/10/01 06:18:51;;;;;;;6.85;5.70;;;;;;;;;;5078005;28;20029;-91
2023/10/01 06:21:23;;;;;;;7.53;5.78;;;;;;;;;;5078312;28;20103;-92
2023/10/01 06:23:52;;;;;;;6.22;5.72;;;;;;;;;;5079001;28;20099;-92
2023/10/01 06:26:37;;;;;;;6.93;6.18;;;;;;;;;;5079392;28;20023;-91
2023/10/01 06:29:07;;;;;;;7.40;6.50;;;;;;;;;;5060522;28;20390;-87
2023/10/01 06:31:53;;;;;;;7.22;5.88;;;;;;;;;;5060028;28;20028;-86
2023/10/01 06:34:23;;;;;;;7.70;6.20;;;;;;;;;;5078772;28;20033;-94
2023/10/01 06:37:00;;;;;;;8.95;5.70;;;;;;;;;;5077364;28;20033;-89
2023/10/01 06:39:26;;;;;;;9.38;6.40;;;;;;;;;;5077248;28;20111;-86
2023/10/01 06:41:52;;;;;;;6.90;6.07;;;;;;;;;;5076720;28;20049;-86
2023/10/01 06:44:19;;;;;;;9.73;6.28;;;;;;;;;;5077176;28;20052;-86
2023/10/01 06:46:47;;;;;;;6.22;5.63;;;;;;;;;;5076844;28;20368;-86
2023/10/01 06:49:12;;;;;;;6.93;5.60;;;;;;;;;;5058765;28;20024;-85
2023/10/01 06:51:44;;;;;;;6.32;5.72;;;;;;;;;;5076754;28;20502;-88
2023/10/01 06:54:13;;;;;;;6.32;5.30;;;;;;;;;;5076796;28;20075;-91
2023/10/01 06:56:44;;;;;;;6.65;5.78;;;;;;;;;;5076881;28;20025;-90
2023/10/01 06:59:13;;;;;;;8.60;5.35;;;;;;;;;;5076802;28;20098;-90
2023/10/01 07:01:46;;;;;;;6.63;5.53;;;;;;;;;;5076860;28;20107;-91
2023/10/01 07:04:13;;;;;;;6.60;5.93;;;;;;;;;;5076343;28;20028;-85
2023/10/01 07:06:39;;;;;;;9.43;5.63;;;;;;;;;;5076523;28;20085;-91
2023/10/01 07:09:24;;;;;;;6.57;5.93;;;;;;;;;;5075929;28;20072;-91
2023/10/01 07:11:59;;;;;;;6.35;5.53;;;;;;;;;;5076748;28;20521;-92
2023/10/01 07:14:38;;;;;;;6.47;5.70;;;;;;;;;;5076309;28;20391;-91
2023/10/01 07:17:25;;;;;;;6.22;5.63;;;;;;;;;;5076673;28;20057;-92
2023/10/01 07:20:00;;;;;;;7.18;5.45;;;;;;;;;;5076665;28;20387;-91
2023/10/01 07:22:27;;;;;;;9.25;6.78;;;;;;;;;;5076325;28;20016;-89
2023/10/01 07:24:53;;;;;;;7.25;6.15;;;;;;;;;;5076198;28;20090;-90
2023/10/01 07:27:21;;;;;;;6.30;5.70;;;;;;;;;;5057972;28;20398;-90
2023/10/01 07:29:47;;;;;;;6.25;5.63;;;;;;;;;;5076883;28;20032;-88
2023/10/01 07:32:13;;;;;;;7.47;5.13;;;;;;;;;;5080403;28;20417;-93
2023/10/01 07:34:39;;;;;;;7.47;5.43;;;;;;;;;;5058141;28;20033;-88
2023/10/01 08:21:54;;;;;;;5.43;4.93;;;;;;;;;;5034404;28;20041;-89
2023/10/01 08:24:23;;;;;;;6.13;5.53;;;;;;;;;;5058168;28;20047;-86
2023/10/01 08:27:03;;;;;;;5.57;5.03;;;;;;;;;;5054893;28;20033;-84
2023/10/01 08:29:28;;;;;;;5.90;5.40;;;;;;;;;;5054720;28;20383;-82
2023/10/01 08:34:24;;;;;;;5.15;4.72;;;;;;;;;;5054606;28;20033;-81
2023/10/01 08:36:57;;;;;;;9.40;5.87;;;;;;;;;;5055194;28;20029;-82
2023/10/01 08:39:34;;;;;;;5.30;4.80;;;;;;;;;;5054485;28;20510;-82
2023/10/01 08:42:10;;;;;;;6.15;5.25;;;;;;;;;;5054543;28;20068;-81
2023/10/01 08:44:54;;;;;;;5.95;5.35;;;;;;;;;;5054401;28;20551;-80
2023/10/01 08:47:21;;;;;;;5.32;4.82;;;;;;;;;;5054327;28;20025;-81
2023/10/01 08:49:51;;;;;;;7.38;5.18;;;;;;;;;;5053180;28;20428;-81
2023/10/01 08:52:25;;;;;;;6.10;5.50;;;;;;;;;;5054688;28;20027;-81
2023/10/01 08:54:55;;;;;;;7.00;6.30;;;;;;;;;;5054570;28;20071;-81
2023/10/01 08:57:36;;;;;;;6.45;5.80;;;;;;;;;;5054170;28;20027;-82
2023/10/01 09:00:17;;;;;;;8.15;5.93;;;;;;;;;;5054401;28;20101;-82
2023/10/01 09:02:42;;;;;;;6.47;5.57;;;;;;;;;;5054287;28;20475;-81
2023/10/01 09:05:12;;;;;;;5.80;5.25;;;;;;;;;;5054273;28;20021;-83
2023/10/01 09:07:48;;;;;;;9.95;5.95;;;;;;;;;;5054252;28;20132;-80
2023/10/01 09:10:17;;;;;;;7.85;6.00;;;;;;;;;;5054267;28;20071;-83
2023/10/01 09:12:46;;;;;;;5.57;5.07;;;;;;;;;;5053983;28;20379;-82
2023/10/01 09:15:23;;;;;;;6.57;5.97;;;;;;;;;;5052733;28;20033;-83
2023/10/01 09:17:58;;;;;;;6.80;5.88;;;;;;;;;;5053902;28;20033;-83
2023/10/01 09:23:56;;;;;;;5.75;5.25;;;;;;;;;;5053674;28;20060;-83
2023/10/01 09:26:53;;;;;;;5.50;5.00;;;;;;;;;;5052515;28;20032;-83
2023/10/01 09:29:25;;;;;;;7.65;5.75;;;;;;;;;;5052521;28;20467;-84
2023/10/01 09:31:58;;;;;;;6.93;5.60;;;;;;;;;;5053602;28;20468;-80
2023/10/01 09:35:09;;;;;;;8.13;6.22;;;;;;;;;;5052402;28;20043;-82
2023/10/01 09:37:34;;;;;;;6.80;5.68;;;;;;;;;;5047797;28;20044;-83
2023/10/01 09:40:04;;;;;;;7.90;5.90;;;;;;;;;;5053821;28;20482;-83
2023/10/01 09:42:44;;;;;;;7.95;5.90;;;;;;;;;;5052345;28;20029;-81
2023/10/01 09:45:26;;;;;;;6.35;5.68;;;;;;;;;;5053502;28;20053;-87
2023/10/01 09:48:04;;;;;;;5.97;5.25;;;;;;;;;;5053394;28;20471;-84
2023/10/01 09:50:39;;;;;;;7.60;6.73;;;;;;;;;;5053467;28;20452;-82
2023/10/01 09:53:12;;;;;;;6.57;5.88;;;;;;;;;;5053544;28;20281;-82
2023/10/01 09:55:47;;;;;;;7.53;5.78;;;;;;;;;;5053394;28;20036;-81
2023/10/01 09:58:24;;;;;;;8.13;5.85;;;;;;;;;;5053227;28;20017;-81
2023/10/01 10:01:08;;;;;;;6.15;5.55;;;;;;;;;;5052010;28;20028;-81
2023/10/01 10:03:36;;;;;;;6.22;5.40;;;;;;;;;;5053503;28;20467;-80
2023/10/01 10:06:10;;;;;;;8.27;5.55;;;;;;;;;;5053480;28;20029;-83
2023/10/01 10:08:38;;;;;;;7.47;6.22;;;;;;;;;;5053419;28;20098;-84
2023/10/01 10:11:06;;;;;;;7.75;5.63;;;;;;;;;;5053417;28;20033;-83
2023/10/01 10:13:50;;;;;;;6.68;5.55;;;;;;;;;;5053534;28;20057;-82
2023/10/01 10:16:32;;;;;;;10.30;6.43;;;;;;;;;;5053523;28;20021;-80
2023/10/01 10:19:20;;;;;;;6.47;5.57;;;;;;;;;;5053138;28;20028;-81
2023/10/01 10:24:36;;;;;;;8.40;5.82;;;;;;;;;;5053519;28;20459;-81
2023/10/01 10:27:08;;;;;;;9.10;6.03;;;;;;;;;;5052872;28;20040;-81
2023/10/01 10:29:46;;;;;;;6.82;5.43;;;;;;;;;;5053377;28;20080;-80
2023/10/01 10:32:15;;;;;;;5.90;5.28;;;;;;;;;;5052952;28;20425;-80
2023/10/01 10:35:06;;;;;;;5.57;4.97;;;;;;;;;;5051843;28;20434;-80
2023/10/01 10:37:37;;;;;;;6.32;5.13;;;;;;;;;;5052997;28;20475;-80
2023/10/01 10:40:44;;;;;;;5.93;5.30;;;;;;;;;;5052833;28;20021;-81
2023/10/01 10:43:02;;;;;;;5.75;5.13;;;;;;;;;;5049967;28;20033;-80
2023/10/01 10:45:42;;;;;;;6.88;5.60;;;;;;;;;;5056197;28;20017;-83
2023/10/01 10:48:09;;;;;;;5.95;5.35;;;;;;;;;;5055251;28;20029;-80
2023/10/01 10:50:41;;;;;;;6.05;5.25;;;;;;;;;;5056729;28;20029;-80
2023/10/01 10:53:14;;;;;;;7.32;5.53;;;;;;;;;;5056618;28;20032;-80
2023/10/01 10:55:55;;;;;;;6.07;5.38;;;;;;;;;;5056366;28;20463;-79
2023/10/01 10:58:24;;;;;;;7.07;5.68;;;;;;;;;;5056308;28;20380;-81
2023/10/01 11:00:50;;;;;;;8.38;5.90;;;;;;;;;;5056549;28;20025;-82
2023/10/01 11:03:38;;;;;;;6.10;5.50;;;;;;;;;;5056183;28;20107;-80
2023/10/01 11:06:29;;;;;;;7.30;4.97;;;;;;;;;;5056590;28;20048;-83
2023/10/01 11:08:56;;;;;;;7.68;5.60;;;;;;;;;;5056409;28;20032;-84
2023/10/01 11:11:39;;;;;;;7.07;5.47;;;;;;;;;;5056336;28;20021;-84
2023/10/01 11:14:11;;;;;;;7.63;5.75;;;;;;;;;;5056196;28;20063;-83
2023/10/01 11:16:40;;;;;;;8.40;6.10;;;;;;;;;;5056243;28;20067;-84
2023/10/01 11:19:14;;;;;;;9.07;6.18;;;;;;;;;;5056167;28;20139;-82
2023/10/01 11:22:00;;;;;;;5.50;4.93;;;;;;;;;;5054524;28;20124;-85
2023/10/01 11:24:40;;;;;;;11.13;5.65;;;;;;;;;;5055921;28;20029;-83
2023/10/01 11:27:19;;;;;;;7.95;5.85;;;;;;;;;;5056004;28;20025;-81
2023/10/01 11:30:19;;;;;;;7.45;5.35;;;;;;;;;;5056022;28;20024;-82
2023/10/01 11:38:34;;;;;;;7.53;6.30;;;;;;;;;;5055540;28;20032;-80
2023/10/01 11:41:07;;;;;;;10.00;6.30;;;;;;;;;;5055916;28;20036;-82
2023/10/01 11:44:00;;;;;;;6.75;5.90;;;;;;;;;;5056024;28;20075;-81
2023/10/01 11:46:34;;;;;;;6.50;5.47;;;;;;;;;;5055504;28;20025;-81
2023/10/01 11:49:06;;;;;;;7.82;6.20;;;;;;;;;;5055374;28;20104;-83
2023/10/01 11:51:46;;;;;;;8.52;5.78;;;;;;;;;;5054263;28;20112;-82
2023/10/01 11:54:19;;;;;;;10.13;6.43;;;;;;;;;;5055339;28;20064;-82
2023/10/01 11:57:06;;;;;;;7.57;5.97;;;;;;;;;;5055323;28;20033;-83
2023/10/01 11:59:34;;;;;;;7.15;5.70;;;;;;;;;;5055365;28;20028;-82
2023/10/01 12:02:21;;;;;;;;;;;;;;;;;;5054524;28;20025;-83
2023/10/01 12:04:56;;;;;;;9.07;6.25;;;;;;;;;;5055259;28;19912;-83
2023/10/01 12:07:23;;;;;;;9.18;6.50;;;;;;;;;;5055285;28;20061;-84
2023/10/01 12:09:50;;;;;;;8.60;6.60;;;;;;;;;;5055535;28;20017;-83
2023/10/01 12:12:42;;;;;;;11.25;6.28;;;;;;;;;;5055696;28;20026;-83
2023/10/01 12:17:53;;;;;;;8.02;6.00;;;;;;;;;;5055393;28;20577;-83
2023/10/01 12:20:22;;;;;;;8.35;6.40;;;;;;;;;;5054186;28;20029;-83
2023/10/01 12:23:11;;;;;;;8.02;6.40;;;;;;;;;;5055486;28;20040;-83
2023/10/01 12:28:19;;;;;;;7.50;6.43;;;;;;;;;;5055739;28;20362;-83
2023/10/01 12:30:57;;;;;;;7.23;6.13;;;;;;;;;;5055572;28;20025;-84
2023/10/01 12:33:38;;;;;;;9.65;6.22;;;;;;;;;;5055155;28;20032;-82
2023/10/01 12:36:54;;;;;;;6.80;5.95;;;;;;;;;;5053770;28;20025;-83
2023/10/01 12:39:16;;;;;;;9.25;5.93;;;;;;;;;;5040533;28;20037;-82
2023/10/01 12:44:28;;;;;;;8.50;6.60;;;;;;;;;;5055235;28;20352;-83
2023/10/01 12:46:55;;;;;;;8.88;5.75;;;;;;;;;;5054889;28;20058;-83
2023/10/01 12:49:21;;;;;;;7.07;6.05;;;;;;;;;;5054707;28;20021;-82
2023/10/01 12:51:53;;;;;;;9.50;6.03;;;;;;;;;;5054921;28;20100;-82
2023/10/01 12:54:25;;;;;;;7.90;6.00;;;;;;;;;;5054762;28;20083;-82
2023/10/01 12:59:39;;;;;;;7.25;5.80;;;;;;;;;;5054662;28;20024;-83
2023/10/01 13:02:22;;;;;;;7.15;6.22;;;;;;;;;;5054941;28;20079;-82
2023/10/01 13:05:43;;;;;;;6.00;5.40;;;;;;;;;;5054705;28;20017;-83
2023/10/01 13:07:45;;;;;;;10.77;6.18;;;;;;;;;;5046638;28;20426;-83
2023/10/01 13:10:11;;;;;;;8.23;6.65;;;;;;;;;;5054341;28;20021;-83
2023/10/01 13:12:56;;;;;;;8.77;6.53;;;;;;;;;;5054395;28;20471;-82
2023/10/01 13:15:33;;;;;;;6.70;6.00;;;;;;;;;;5054505;28;20033;-83
2023/10/01 13:18:00;;;;;;;6.88;6.13;;;;;;;;;;5054176;28;20021;-83
2023/10/01 13:20:28;;;;;;;7.30;6.60;;;;;;;;;;5054948;28;20112;-83
2023/10/01 13:23:06;;;;;;;8.10;6.13;;;;;;;;;;5055021;28;20037;-84
2023/10/01 20:08:36;;;;;;;11.13;9.68;;;;;;;;;;5022433;28;20065;-87
2023/10/01 20:11:11;;;;;;;10.60;9.32;;;;;;;;;;5016613;28;20033;-84
2023/10/01 20:13:38;;;;;;;10.80;9.65;;;;;;;;;;5031410;28;20038;-84
2023/10/01 20:16:04;;;;;;;10.63;9.55;;;;;;;;;;5031142;28;20079;-85
2023/10/01 20:18:33;;;;;;;12.35;10.00;;;;;;;;;;5035820;28;20472;-84
2023/10/01 20:21:05;;;;;;;11.32;10.20;;;;;;;;;;5034461;28;20030;-84
2023/10/01 20:23:37;;;;;;;12.00;10.68;;;;;;;;;;5034789;28;20117;-84
2023/10/01 20:26:06;;;;;;;12.77;10.25;;;;;;;;;;5035712;28;20089;-84
2023/10/01 20:28:32;;;;;;;15.32;10.63;;;;;;;;;;5035453;28;20025;-83
2023/10/01 20:30:59;;;;;;;11.55;10.07;;;;;;;;;;5034326;28;20036;-83
2023/10/01 20:33:26;;;;;;;10.32;9.30;;;;;;;;;;5034222;28;20460;-83
2023/10/01 20:35:56;;;;;;;11.00;9.90;;;;;;;;;;5035360;28;20053;-83
2023/10/01 20:38:29;;;;;;;10.88;9.88;;;;;;;;;;5035847;28;20029;-84
2023/10/01 20:41:15;;;;;;;12.13;10.82;;;;;;;;;;5034216;28;20468;-84
2023/10/01 20:43:44;;;;;;;13.13;10.65;;;;;;;;;;5033997;28;20133;-84
2023/10/01 20:46:14;;;;;;;13.50;10.45;;;;;;;;;;5036216;28;20480;-84
2023/10/01 20:48:45;;;;;;;11.45;10.30;;;;;;;;;;5034557;28;20042;-84
2023/10/01 20:54:03;;;;;;;11.32;10.23;;;;;;;;;;5035501;28;20051;-84
2023/10/01 20:56:31;;;;;;;10.60;9.50;;;;;;;;;;5035098;28;20025;-84
2023/10/01 20:59:16;;;;;;;10.73;9.63;;;;;;;;;;5035441;28;20025;-84
2023/10/01 21:02:08;;;;;;;12.27;10.45;;;;;;;;;;5019989;28;20037;-85
2023/10/01 21:04:34;;;;;;;11.20;9.95;;;;;;;;;;5035025;28;20083;-84
2023/10/01 21:07:11;;;;;;;13.15;10.15;;;;;;;;;;5033687;28;20014;-84
2023/10/01 21:09:39;;;;;;;11.68;10.20;;;;;;;;;;5034991;28;20117;-85
2023/10/01 21:12:12;;;;;;;10.18;9.18;;;;;;;;;;5035086;28;20056;-84
2023/10/01 21:15:03;;;;;;;12.10;9.60;;;;;;;;;;5033276;28;20499;-84
2023/10/01 21:17:35;;;;;;;11.85;8.70;;;;;;;;;;5033946;28;20068;-85
2023/10/01 21:20:13;;;;;;;10.15;9.10;;;;;;;;;;5032897;28;20034;-84
2023/10/01 21:22:42;;;;;;;11.05;9.15;;;;;;;;;;5034586;28;20034;-84
2023/10/01 21:25:22;;;;;;;10.98;9.88;;;;;;;;;;5034173;28;20072;-84
2023/10/01 21:28:14;;;;;;;11.00;9.77;;;;;;;;;;5033895;28;20590;-84
2023/10/01 21:30:45;;;;;;;11.32;10.13;;;;;;;;;;5033927;28;20034;-84
2023/10/01 21:33:17;;;;;;;12.70;9.90;;;;;;;;;;5033918;28;20021;-84
2023/10/01 21:35:43;;;;;;;10.38;9.32;;;;;;;;;;5033896;28;20476;-84
2023/10/01 21:38:20;;;;;;;15.30;9.70;;;;;;;;;;5033962;28;20507;-85
2023/10/01 21:40:46;;;;;;;11.05;9.95;;;;;;;;;;5034010;28;20057;-84
2023/10/01 21:43:20;;;;;;;11.70;10.50;;;;;;;;;;5033823;28;20064;-84
2023/10/01 21:45:58;;;;;;;13.38;10.82;;;;;;;;;;5033474;28;20026;-85
2023/10/01 21:48:25;;;;;;;10.88;9.80;;;;;;;;;;5033632;28;20476;-86
2023/10/01 21:50:58;;;;;;;13.02;9.35;;;;;;;;;;5033803;28;20032;-86
2023/10/01 21:53:28;;;;;;;12.30;9.65;;;;;;;;;;5033555;28;20048;-85
2023/10/01 21:55:58;;;;;;;11.00;9.90;;;;;;;;;;5033285;28;20026;-85
2023/10/01 21:58:34;;;;;;;11.85;10.07;;;;;;;;;;5033902;28;20030;-84
2023/10/01 22:03:53;;;;;;;12.32;10.65;;;;;;;;;;5033754;28;20501;-85
